createdAt,value
2023-01-28T00:01:45.878Z,98828.41
2023-01-28T00:04:21.798Z,98830.53
2023-01-28T00:06:53.725Z,98826.91
2023-01-28T00:09:26.411Z,98826.59
2023-01-28T00:11:59.099Z,98820.84
2023-01-28T00:14:31.958Z,98824.78
2023-01-28T00:17:06.119Z,98826.59
2023-01-28T00:19:39.083Z,98821.50
2023-01-28T00:22:10.975Z,98820.63
2023-01-28T00:24:43.723Z,98812.63
2023-01-28T00:27:16.503Z,98825.25
2023-01-28T00:29:49.194Z,98822.66
2023-01-28T00:32:21.538Z,98814.97
2023-01-28T00:34:53.923Z,98810.91
2023-01-28T00:37:26.265Z,98814.09
2023-01-28T00:39:58.134Z,98812.94
2023-01-28T00:42:30.894Z,98812.16
2023-01-28T00:45:02.803Z,98816.22
2023-01-28T00:47:35.972Z,98819.13
2023-01-28T00:50:08.632Z,98819.13
2023-01-28T00:52:42.782Z,98817.88
2023-01-28T00:55:15.751Z,98813.66
2023-01-28T00:57:49.234Z,98819.22
2023-01-28T01:00:27.706Z,98821.44
2023-01-28T01:03:00.601Z,98820.69
2023-01-28T01:05:34.291Z,98817.22
2023-01-28T01:08:06.729Z,98808.72
2023-01-28T01:10:40.246Z,98810.69
2023-01-28T01:13:12.573Z,98814.19
2023-01-28T01:15:44.519Z,98810.56
2023-01-28T01:18:18.213Z,98815.28
2023-01-28T01:20:52.192Z,98815.06
2023-01-28T01:23:27.930Z,98813.94
2023-01-28T01:26:01.865Z,98814.63
2023-01-28T01:28:34.808Z,98819.44
2023-01-28T01:31:12.712Z,98813.19
2023-01-28T01:33:49.141Z,98817.59
2023-01-28T01:36:21.890Z,98813.19
2023-01-28T01:38:55.862Z,98816.00
2023-01-28T01:41:32.328Z,98824.56
2023-01-28T01:44:06.937Z,98826.19
2023-01-28T01:46:46.569Z,98827.44
2023-01-28T01:49:26.210Z,98825.72
2023-01-28T01:52:08.311Z,98817.25
2023-01-28T01:54:43.331Z,98821.84
2023-01-28T01:57:25.413Z,98818.78
2023-01-28T02:00:05.915Z,98822.63
2023-01-28T02:02:49.988Z,98820.13
2023-01-28T02:05:23.687Z,98824.47
2023-01-28T02:08:19.194Z,98829.44
2023-01-28T02:11:02.530Z,98820.31
2023-01-28T02:13:42.478Z,98828.88
2023-01-28T02:16:15.717Z,98824.25
2023-01-28T02:18:47.591Z,98822.25
2023-01-28T02:22:11.570Z,98818.19
2023-01-28T02:25:28.745Z,98816.66
2023-01-28T02:28:19.208Z,98820.13
2023-01-28T02:31:07.011Z,98805.91
2023-01-28T02:34:06.832Z,98817.63
2023-01-28T02:37:18.499Z,98812.44
2023-01-28T02:40:25.347Z,98830.28
2023-01-28T02:42:58.082Z,98829.78
2023-01-28T02:46:07.744Z,98826.88
2023-01-28T02:48:40.088Z,98827.66
2023-01-28T02:51:35.467Z,98826.69
2023-01-28T02:54:25.679Z,98824.16
2023-01-28T02:57:38.918Z,98825.91
2023-01-28T03:00:25.656Z,98826.56
2023-01-28T03:03:06.000Z,98828.72
2023-01-28T03:06:03.193Z,98829.47
2023-01-28T03:09:10.517Z,98831.09
2023-01-28T03:12:08.539Z,98835.94
2023-01-28T03:15:00.727Z,98836.31
2023-01-28T03:18:01.582Z,98831.22
2023-01-28T03:21:27.444Z,98825.53
2023-01-28T03:24:26.304Z,98827.47
2023-01-28T03:27:40.016Z,98824.38
2023-01-28T03:30:55.847Z,98833.22
2023-01-28T03:33:55.994Z,98837.66
2023-01-28T03:36:48.652Z,98851.50
2023-01-28T03:39:43.956Z,98837.75
2023-01-28T03:42:19.017Z,98849.22
2023-01-28T03:45:05.299Z,98843.72
2023-01-28T03:47:40.983Z,98846.22
2023-01-28T03:50:16.923Z,98852.56
2023-01-28T03:53:14.933Z,98850.53
2023-01-28T03:55:54.657Z,98851.63
2023-01-28T03:58:46.789Z,98846.94
2023-01-28T04:01:21.923Z,98846.53
2023-01-28T04:03:55.282Z,98838.84
2023-01-28T04:06:32.390Z,98850.09
2023-01-28T04:09:23.592Z,98845.47
2023-01-28T04:12:19.173Z,98846.84
2023-01-28T04:14:55.384Z,98846.13
2023-01-28T04:17:32.672Z,98850.78
2023-01-28T04:20:05.445Z,98849.75
2023-01-28T04:22:38.867Z,98866.84
2023-01-28T04:25:15.628Z,98857.03
2023-01-28T04:27:48.724Z,98852.59
2023-01-28T04:30:25.980Z,98861.34
2023-01-28T04:33:22.353Z,98858.38
2023-01-28T04:36:05.345Z,98863.34
2023-01-28T04:38:47.605Z,98866.44
2023-01-28T04:41:52.234Z,98860.09
2023-01-28T04:44:37.811Z,98867.09
2023-01-28T04:47:31.538Z,98871.63
2023-01-28T04:50:23.724Z,98871.31
2023-01-28T04:53:12.245Z,98872.56
2023-01-28T04:56:01.667Z,98873.81
2023-01-28T04:58:37.711Z,98873.22
2023-01-28T05:01:14.900Z,98882.28
2023-01-28T05:03:46.910Z,98878.91
2023-01-28T05:06:27.350Z,98883.88
2023-01-28T05:09:02.312Z,98879.97
2023-01-28T05:11:37.856Z,98878.25
2023-01-28T05:14:12.964Z,98889.31
2023-01-28T05:17:04.832Z,98886.78
2023-01-28T05:19:38.331Z,98889.13
2023-01-28T05:22:15.985Z,98889.34
2023-01-28T05:25:10.725Z,98891.94
2023-01-28T05:27:43.079Z,98894.44
2023-01-28T05:30:15.896Z,98891.16
2023-01-28T05:32:48.337Z,98891.28
2023-01-28T05:35:25.320Z,98896.72
2023-01-28T05:37:57.636Z,98895.56
2023-01-28T05:40:29.604Z,98895.78
2023-01-28T05:43:02.970Z,98901.09
2023-01-28T05:45:43.380Z,98892.03
2023-01-28T05:48:42.066Z,98897.34
2023-01-28T05:51:36.413Z,98903.69
2023-01-28T05:54:10.277Z,98912.59
2023-01-28T05:56:42.179Z,98906.44
2023-01-28T05:59:15.417Z,98908.66
2023-01-28T06:01:49.538Z,98905.81
2023-01-28T06:04:22.700Z,98905.25
2023-01-28T06:06:54.982Z,98898.69
2023-01-28T06:09:28.039Z,98901.38
2023-01-28T06:11:59.987Z,98912.66
2023-01-28T06:14:33.201Z,98911.03
2023-01-28T06:17:16.456Z,98911.41
2023-01-28T06:20:12.604Z,98921.59
2023-01-28T06:22:46.428Z,98925.34
2023-01-28T06:25:19.700Z,98924.09
2023-01-28T06:27:52.673Z,98934.41
2023-01-28T06:30:25.373Z,98933.06
2023-01-28T06:32:57.441Z,98938.03
2023-01-28T06:35:30.169Z,98942.81
2023-01-28T06:38:02.102Z,98943.78
2023-01-28T06:40:34.879Z,98945.47
2023-01-28T06:43:07.014Z,98949.34
2023-01-28T06:45:39.744Z,98951.03
2023-01-28T06:48:12.235Z,98960.28
2023-01-28T06:50:47.365Z,98968.72
2023-01-28T06:53:19.599Z,98963.53
2023-01-28T06:55:52.500Z,98968.06
2023-01-28T06:58:25.093Z,98967.28
2023-01-28T07:00:56.993Z,98961.72
2023-01-28T07:03:31.085Z,98972.84
2023-01-28T07:06:04.018Z,98971.22
2023-01-28T07:08:38.249Z,98969.50
2023-01-28T07:11:11.120Z,98974.34
2023-01-28T07:13:43.573Z,98978.53
2023-01-28T07:16:17.321Z,98980.22
2023-01-28T07:18:49.618Z,98986.09
2023-01-28T07:21:22.355Z,98984.97
2023-01-28T07:23:54.259Z,98982.56
2023-01-28T07:26:26.996Z,98987.78
2023-01-28T07:29:00.662Z,98992.06
2023-01-28T07:31:33.053Z,98991.41
2023-01-28T07:34:05.823Z,98994.88
2023-01-28T07:36:38.146Z,98997.47
2023-01-28T07:39:10.477Z,98995.25
2023-01-28T07:41:42.681Z,99002.50
2023-01-28T07:44:30.997Z,99000.91
2023-01-28T07:47:05.823Z,99001.84
2023-01-28T07:49:40.210Z,99001.22
2023-01-28T07:52:12.593Z,99001.59
2023-01-28T07:54:45.276Z,99013.56
2023-01-28T07:57:23.221Z,98999.88
2023-01-28T07:59:56.066Z,99004.75
2023-01-28T08:02:29.291Z,98996.91
2023-01-28T08:05:02.202Z,98999.59
2023-01-28T08:07:34.582Z,98998.50
2023-01-28T08:10:07.439Z,99000.88
2023-01-28T08:12:40.516Z,99000.63
2023-01-28T08:15:13.212Z,99006.31
2023-01-28T08:17:45.345Z,99012.53
2023-01-28T08:20:18.295Z,99018.28
2023-01-28T08:22:50.682Z,99024.09
2023-01-28T08:25:22.911Z,99025.78
2023-01-28T08:27:55.973Z,99019.75
2023-01-28T08:30:28.830Z,99025.75
2023-01-28T08:33:01.916Z,99025.53
2023-01-28T08:35:34.606Z,99032.53
2023-01-28T08:38:09.087Z,99025.53
2023-01-28T08:40:41.124Z,99017.34
2023-01-28T08:43:14.195Z,99020.06
2023-01-28T08:45:46.087Z,99016.72
2023-01-28T08:51:13.322Z,99029.72
2023-01-28T08:53:46.064Z,99024.63
2023-01-28T08:56:18.028Z,99029.34
2023-01-28T08:58:50.751Z,99026.53
2023-01-28T09:01:22.863Z,99033.88
2023-01-28T09:03:55.700Z,99025.81
2023-01-28T09:06:28.254Z,99028.50
2023-01-28T09:09:01.766Z,99023.97
2023-01-28T09:11:33.702Z,99037.28
2023-01-28T09:14:06.157Z,99030.72
2023-01-28T09:16:38.105Z,99029.84
2023-01-28T09:19:11.549Z,99034.28
2023-01-28T09:21:43.414Z,99034.97
2023-01-28T09:24:16.178Z,99044.03
2023-01-28T09:26:51.775Z,99044.78
2023-01-28T09:29:24.492Z,99039.00
2023-01-28T09:31:57.221Z,99051.75
2023-01-28T09:34:29.561Z,99043.75
2023-01-28T09:37:02.068Z,99054.06
2023-01-28T09:39:33.998Z,99053.41
2023-01-28T09:43:04.129Z,99053.50
2023-01-28T09:45:50.815Z,99060.91
2023-01-28T09:48:31.257Z,99061.78
2023-01-28T09:51:04.440Z,99053.31
2023-01-28T09:53:49.654Z,99047.50
2023-01-28T09:56:30.727Z,99055.63
2023-01-28T09:59:22.205Z,99050.00
2023-01-28T10:02:16.202Z,99053.66
2023-01-28T10:05:28.214Z,99056.66
2023-01-28T10:08:26.998Z,99062.06
2023-01-28T10:11:15.915Z,99059.16
2023-01-28T10:14:14.027Z,99060.91
2023-01-28T10:16:57.338Z,99060.59
2023-01-28T10:19:38.170Z,99059.53
2023-01-28T10:22:19.287Z,99057.91
2023-01-28T10:25:04.133Z,99052.81
2023-01-28T10:27:37.397Z,99048.16
2023-01-28T10:30:25.953Z,99044.34
2023-01-28T10:33:06.491Z,99046.06
2023-01-28T10:35:41.938Z,99041.22
2023-01-28T10:38:19.393Z,99031.94
2023-01-28T10:40:52.457Z,99037.94
2023-01-28T10:43:26.957Z,99036.03
2023-01-28T10:46:11.083Z,99021.72
2023-01-28T10:49:15.430Z,99017.94
2023-01-28T10:51:47.755Z,99025.59
2023-01-28T10:54:30.677Z,99020.69
2023-01-28T10:57:05.834Z,99024.72
2023-01-28T10:59:42.115Z,99019.94
2023-01-28T11:02:35.846Z,99015.13
2023-01-28T11:05:18.640Z,99014.56
2023-01-28T11:07:51.144Z,99010.69
2023-01-28T11:10:32.429Z,98996.25
2023-01-28T11:13:13.419Z,99002.44
2023-01-28T11:16:07.131Z,99003.72
2023-01-28T11:18:46.812Z,99001.69
2023-01-28T11:21:30.808Z,99005.72
2023-01-28T11:24:15.049Z,99007.25
2023-01-28T11:26:52.898Z,99012.13
2023-01-28T11:29:31.898Z,99011.38
2023-01-28T11:35:29.361Z,99010.47
2023-01-28T11:38:02.204Z,99017.75
2023-01-28T11:40:34.121Z,99021.59
2023-01-28T11:43:10.170Z,99023.53
2023-01-28T11:46:22.910Z,99024.94
2023-01-28T11:49:07.481Z,99021.63
2023-01-28T11:52:05.086Z,99018.53
2023-01-28T11:55:04.306Z,99019.75
2023-01-28T11:57:54.182Z,99018.41
2023-01-28T12:00:50.394Z,99016.09
2023-01-28T12:04:15.240Z,99005.47
2023-01-28T12:06:59.590Z,98997.47
2023-01-28T12:10:09.177Z,99001.94
2023-01-28T12:13:32.001Z,98992.22
2023-01-28T12:16:16.167Z,98993.91
2023-01-28T12:19:16.253Z,99010.63
2023-01-28T12:22:37.248Z,99011.34
2023-01-28T12:25:36.687Z,99004.94
2023-01-28T12:28:24.634Z,99005.66
2023-01-28T12:34:47.180Z,99013.06
2023-01-28T12:37:37.459Z,99009.75
2023-01-28T12:40:42.400Z,99012.28
2023-01-28T12:43:38.282Z,99017.25
2023-01-28T12:46:29.032Z,99020.19
2023-01-28T12:49:03.655Z,99023.81
2023-01-28T12:51:55.629Z,99015.69
2023-01-28T12:54:57.169Z,99025.59
2023-01-28T12:57:32.085Z,99013.47
2023-01-28T13:00:19.608Z,99019.13
2023-01-28T13:03:34.897Z,99011.44
2023-01-28T13:06:15.024Z,99022.53
2023-01-28T13:08:49.872Z,99017.66
2023-01-28T13:11:22.680Z,99023.38
2023-01-28T13:13:55.137Z,99024.47
2023-01-28T13:16:36.817Z,99029.31
2023-01-28T13:19:26.120Z,99031.38
2023-01-28T13:21:58.018Z,99032.72
2023-01-28T13:24:34.213Z,99028.00
2023-01-28T13:27:22.952Z,99033.56
2023-01-28T13:30:24.115Z,99034.56
2023-01-28T13:33:05.453Z,99034.25
2023-01-28T13:35:41.188Z,99040.28
2023-01-28T13:38:20.763Z,99038.53
2023-01-28T13:41:01.824Z,99030.53
2023-01-28T13:43:40.112Z,99046.28
2023-01-28T13:46:27.820Z,99043.00
2023-01-28T13:49:00.630Z,99040.31
2023-01-28T13:51:35.943Z,99044.00
2023-01-28T13:54:16.278Z,99033.03
2023-01-28T13:57:01.210Z,99036.25
2023-01-28T13:59:43.630Z,99046.53
2023-01-28T14:02:19.098Z,99047.53
2023-01-28T14:05:22.759Z,99047.63
2023-01-28T14:08:36.940Z,99054.28
2023-01-28T14:11:34.395Z,99053.44
2023-01-28T14:14:55.430Z,99047.72
2023-01-28T14:17:52.829Z,99053.06
2023-01-28T14:20:38.067Z,99057.03
2023-01-28T14:23:22.354Z,99058.53
2023-01-28T14:26:29.077Z,99060.53
2023-01-28T14:29:58.516Z,99061.97
2023-01-28T14:32:33.756Z,99070.38
2023-01-28T14:35:10.019Z,99081.22
2023-01-28T14:37:42.830Z,99089.22
2023-01-28T14:40:19.183Z,99090.69
2023-01-28T14:42:54.600Z,99083.84
2023-01-28T14:45:51.527Z,99086.13
2023-01-28T14:48:35.081Z,99084.78
2023-01-28T14:51:43.059Z,99084.63
2023-01-28T14:54:57.097Z,99085.47
2023-01-28T14:57:45.984Z,99101.34
2023-01-28T15:00:30.088Z,99105.22
2023-01-28T15:03:24.901Z,99112.28
2023-01-28T15:06:15.904Z,99107.00
2023-01-28T15:08:48.930Z,99106.13
2023-01-28T15:11:25.392Z,99107.09
2023-01-28T15:14:00.872Z,99106.41
2023-01-28T15:16:56.144Z,99111.59
2023-01-28T15:19:36.435Z,99117.03
2023-01-28T15:22:09.378Z,99122.53
2023-01-28T15:24:45.969Z,99127.56
2023-01-28T15:27:30.240Z,99136.84
2023-01-28T15:30:02.570Z,99128.81
2023-01-28T15:32:35.315Z,99136.25
2023-01-28T15:35:14.184Z,99141.09
2023-01-28T15:40:25.983Z,99142.31
2023-01-28T15:42:58.833Z,99143.81
2023-01-28T15:45:33.643Z,99154.84
2023-01-28T15:48:08.850Z,99155.16
2023-01-28T15:50:44.973Z,99154.66
2023-01-28T15:53:17.304Z,99156.88
2023-01-28T15:55:49.369Z,99154.66
2023-01-28T15:58:31.353Z,99165.03
2023-01-28T16:01:09.443Z,99171.44
2023-01-28T16:03:45.600Z,99181.78
2023-01-28T16:06:23.145Z,99179.38
2023-01-28T16:08:58.932Z,99187.09
2023-01-28T16:11:41.775Z,99181.78
2023-01-28T16:14:42.914Z,99187.88
2023-01-28T16:17:23.896Z,99191.63
2023-01-28T16:20:09.981Z,99195.88
2023-01-28T16:22:43.992Z,99207.72
2023-01-28T16:25:39.226Z,99197.41
2023-01-28T16:28:20.727Z,99198.41
2023-01-28T16:30:52.838Z,99202.81
2023-01-28T16:33:26.131Z,99203.31
2023-01-28T16:36:08.369Z,99197.81
2023-01-28T16:39:03.273Z,99202.16
2023-01-28T16:41:43.861Z,99198.28
2023-01-28T16:44:18.261Z,99200.41
2023-01-28T16:46:50.815Z,99205.03
2023-01-28T16:49:25.019Z,99203.69
2023-01-28T16:51:57.524Z,99202.16
2023-01-28T16:54:31.839Z,99204.19
2023-01-28T16:57:04.157Z,99200.81
2023-01-28T16:59:37.329Z,99203.50
2023-01-28T17:02:13.964Z,99203.69
2023-01-28T17:04:46.878Z,99211.13
2023-01-28T17:07:19.769Z,99206.38
2023-01-28T17:09:55.026Z,99207.38
2023-01-28T17:12:27.732Z,99215.84
2023-01-28T17:14:59.857Z,99219.16
2023-01-28T17:17:32.593Z,99218.16
2023-01-28T17:20:06.146Z,99217.41
2023-01-28T17:22:39.429Z,99220.03
2023-01-28T17:25:12.267Z,99224.81
2023-01-28T17:27:44.719Z,99235.53
2023-01-28T17:30:20.769Z,99224.47
2023-01-28T17:32:53.092Z,99213.53
2023-01-28T17:35:25.432Z,99214.69
2023-01-28T17:37:57.535Z,99220.50
2023-01-28T17:40:30.059Z,99221.84
2023-01-28T17:43:02.461Z,99226.97
2023-01-28T17:45:34.779Z,99230.34
2023-01-28T17:48:07.740Z,99242.75
2023-01-28T17:50:41.345Z,99242.50
2023-01-28T17:53:13.685Z,99243.25
2023-01-28T17:55:46.793Z,99246.50
2023-01-28T17:58:18.724Z,99247.56
2023-01-28T18:00:51.638Z,99256.16
2023-01-28T18:03:23.741Z,99256.06
2023-01-28T18:05:59.894Z,99259.84
2023-01-28T18:08:31.799Z,99269.25
2023-01-28T18:11:09.301Z,99271.56
2023-01-28T18:13:43.595Z,99264.09
2023-01-28T18:16:18.866Z,99266.19
2023-01-28T18:18:51.673Z,99265.91
2023-01-28T18:21:34.740Z,99266.94
2023-01-28T18:24:12.622Z,99264.53
2023-01-28T18:26:45.186Z,99266.16
2023-01-28T18:29:20.474Z,99274.38
2023-01-28T18:31:55.548Z,99271.88
2023-01-28T18:34:31.293Z,99274.88
2023-01-28T18:37:04.087Z,99275.63
2023-01-28T18:39:36.824Z,99266.88
2023-01-28T18:42:09.326Z,99272.50
2023-01-28T18:44:43.051Z,99267.19
2023-01-28T18:47:15.407Z,99260.78
2023-01-28T18:49:48.041Z,99259.13
2023-01-28T18:52:20.779Z,99268.91
2023-01-28T18:54:54.729Z,99276.28
2023-01-28T18:57:26.647Z,99276.56
2023-01-28T18:59:59.340Z,99271.94
2023-01-28T19:02:31.297Z,99280.34
2023-01-28T19:05:04.192Z,99269.81
2023-01-28T19:07:57.699Z,99271.63
2023-01-28T19:10:30.235Z,99265.47
2023-01-28T19:13:02.226Z,99266.81
2023-01-28T19:15:34.987Z,99263.69
2023-01-28T19:18:07.071Z,99257.06
2023-01-28T19:20:41.791Z,99270.28
2023-01-28T19:23:14.599Z,99267.09
2023-01-28T19:25:47.500Z,99266.13
2023-01-28T19:28:19.520Z,99259.84
2023-01-28T19:30:53.001Z,99261.59
2023-01-28T19:33:25.813Z,99258.38
2023-01-28T19:36:00.539Z,99269.53
2023-01-28T19:38:32.487Z,99268.34
2023-01-28T19:41:07.548Z,99266.41
2023-01-28T19:43:39.855Z,99260.03
2023-01-28T19:46:16.429Z,99271.72
2023-01-28T19:48:48.365Z,99274.81
2023-01-28T19:51:22.295Z,99282.94
2023-01-28T19:53:55.420Z,99274.63
2023-01-28T19:56:32.496Z,99288.44
2023-01-28T19:59:05.768Z,99286.59
2023-01-28T20:01:38.398Z,99276.06
2023-01-28T20:04:10.282Z,99280.34
2023-01-28T20:06:42.996Z,99279.53
2023-01-28T20:09:18.023Z,99289.97
2023-01-28T20:11:49.977Z,99292.19
2023-01-28T20:14:44.417Z,99292.25
2023-01-28T20:17:17.292Z,99291.97
2023-01-28T20:19:49.595Z,99290.72
2023-01-28T20:22:22.398Z,99293.88
2023-01-28T20:24:57.141Z,99300.72
2023-01-28T20:27:30.703Z,99298.88
2023-01-28T20:30:02.776Z,99297.53
2023-01-28T20:32:35.523Z,99294.59
2023-01-28T20:35:08.226Z,99305.00
2023-01-28T20:37:41.201Z,99296.53
2023-01-28T20:40:13.730Z,99305.81
2023-01-28T20:42:46.069Z,99301.38
2023-01-28T20:45:18.488Z,99303.31
2023-01-28T20:47:50.404Z,99303.03
2023-01-28T20:50:23.627Z,99302.34
2023-01-28T20:52:55.705Z,99311.31
2023-01-28T20:55:29.184Z,99311.19
2023-01-28T20:58:01.491Z,99309.03
2023-01-28T21:00:34.551Z,99312.34
2023-01-28T21:03:09.826Z,99309.53
2023-01-28T21:05:44.994Z,99313.94
2023-01-28T21:08:18.045Z,99320.41
2023-01-28T21:10:49.995Z,99324.47
2023-01-28T21:13:22.769Z,99312.13
2023-01-28T21:15:57.197Z,99317.13
2023-01-28T21:18:29.576Z,99319.72
2023-01-28T21:21:30.783Z,99319.63
2023-01-28T21:24:04.425Z,99322.22
2023-01-28T21:26:36.295Z,99319.50
2023-01-28T21:29:09.057Z,99323.25
2023-01-28T21:31:41.297Z,99324.59
2023-01-28T21:34:14.991Z,99329.47
2023-01-28T21:36:47.388Z,99334.50
2023-01-28T21:39:19.263Z,99335.75
2023-01-28T21:41:54.653Z,99341.59
2023-01-28T21:44:49.550Z,99335.28
2023-01-28T21:47:22.625Z,99334.38
2023-01-28T21:49:55.724Z,99332.69
2023-01-28T21:52:29.382Z,99333.34
2023-01-28T21:55:01.314Z,99328.84
2023-01-28T21:58:16.703Z,99336.19
2023-01-28T22:00:49.106Z,99329.22
2023-01-28T22:03:22.096Z,99327.28
2023-01-28T22:05:55.375Z,99323.56
2023-01-28T22:08:28.528Z,99331.25
2023-01-28T22:11:08.382Z,99334.53
2023-01-28T22:13:43.442Z,99335.34
2023-01-28T22:16:16.593Z,99324.19
2023-01-28T22:18:50.574Z,99333.75
2023-01-28T22:21:23.586Z,99333.84
2023-01-28T22:23:56.322Z,99332.22
2023-01-28T22:26:28.241Z,99338.56
2023-01-28T22:29:02.140Z,99329.06
2023-01-28T22:31:34.866Z,99333.69
2023-01-28T22:34:07.267Z,99331.78
2023-01-28T22:36:40.668Z,99338.34
2023-01-28T22:39:15.607Z,99338.56
2023-01-28T22:41:48.455Z,99329.06
2023-01-28T22:44:21.306Z,99334.94
2023-01-28T22:46:53.245Z,99340.25
2023-01-28T22:49:27.089Z,99344.56
2023-01-28T22:51:58.984Z,99339.72
2023-01-28T22:54:31.695Z,99341.56
2023-01-28T22:57:04.075Z,99335.97
2023-01-28T22:59:35.956Z,99337.69
2023-01-28T23:02:09.171Z,99339.63
2023-01-28T23:04:43.657Z,99338.75
2023-01-28T23:07:17.039Z,99345.88
2023-01-28T23:09:49.085Z,99340.66
2023-01-28T23:12:22.178Z,99347.00
2023-01-28T23:15:12.892Z,99337.28
2023-01-28T23:18:03.430Z,99333.56
2023-01-28T23:20:58.357Z,99334.34
2023-01-28T23:23:48.824Z,99332.06
2023-01-28T23:26:21.561Z,99335.22
2023-01-28T23:28:53.913Z,99331.50
2023-01-28T23:31:27.579Z,99329.47
2023-01-28T23:33:59.564Z,99332.88
2023-01-28T23:36:32.552Z,99339.09
2023-01-28T23:39:04.443Z,99339.41
2023-01-28T23:41:39.582Z,99332.97
2023-01-28T23:44:11.546Z,99337.16
2023-01-28T23:46:44.240Z,99335.38
2023-01-28T23:49:16.823Z,99334.31
2023-01-28T23:51:50.012Z,99338.06
2023-01-28T23:54:21.935Z,99335.69
2023-01-28T23:56:54.866Z,99342.38
2023-01-28T23:59:27.171Z,99340.03
